Time;durP1;ratioP1;P1;durP2;ratioP2;P2;SDS_P1;SDS_P2;PMS_P1;PMS_P2;Temp;Humidity;BMP_temperature;BMP_pressure;BME280_temperature;BME280_humidity;BME280_pressure;Samples;Min_cycle;Max_cycle;Signal;HPM_P1;HPM_P2
2021/12/05 00:24:13;;;;;;;7.85;2.33;;;;;;;0.43;93.17;94977.38;5001016;28;20503;-71
2021/12/05 00:26:41;;;;;;;11.98;3.05;;;;;;;0.46;93.84;94970.88;5002684;28;20060;-71
2021/12/05 01:06:28;;;;;;;5.82;2.10;;;;;;;0.54;95.87;95002.16;4958984;28;20069;-72
2021/12/05 01:13:46;;;;;;;6.70;1.95;;;;;;;0.63;96.06;95011.38;5001747;28;20395;-70
2021/12/05 01:16:18;;;;;;;11.32;2.13;;;;;;;0.61;96.09;95004.72;5003216;28;20052;-71
2021/12/05 01:18:44;;;;;;;8.63;2.50;;;;;;;0.64;95.91;95006.91;5003544;28;20037;-71
2021/12/05 01:21:15;;;;;;;3.67;1.10;;;;;;;0.63;95.99;95003.47;5003591;28;20110;-71
2021/12/05 01:23:58;;;;;;;4.07;1.58;;;;;;;0.59;95.71;94994.41;4978590;28;20508;-74
2021/12/05 01:26:35;;;;;;;13.25;2.13;;;;;;;0.66;95.16;95007.50;4985818;28;20041;-73
2021/12/05 01:31:37;;;;;;;8.95;2.70;;;;;;;0.75;95.15;95006.97;5000350;28;20456;-71
2021/12/05 01:34:25;;;;;;;10.35;1.70;;;;;;;0.77;94.88;95006.72;4989310;28;20260;-71
2021/12/05 01:39:37;;;;;;;7.05;2.20;;;;;;;0.74;95.10;95009.81;5003672;28;20380;-71
2021/12/05 01:50:39;;;;;;;;;;;;;;;0.76;94.88;95000.66;5004959;28;20059;-71
2021/12/05 01:56:43;;;;;;;11.05;1.42;;;;;;;0.74;95.16;94997.44;4956318;28;20081;-74
2021/12/05 01:59:02;;;;;;;7.65;2.38;;;;;;;0.71;94.86;94997.09;4982498;28;20511;-73
2021/12/05 02:37:15;;;;;;;9.90;2.00;;;;;;;0.60;94.20;95008.38;4979032;28;20614;-70
2021/12/05 02:42:31;;;;;;;7.32;1.38;;;;;;;0.62;94.05;94991.31;4999499;28;20038;-69
2021/12/05 02:45:03;;;;;;;6.43;1.50;;;;;;;0.64;93.91;94993.75;4984989;28;20168;-70
2021/12/05 02:47:31;;;;;;;12.65;1.58;;;;;;;0.58;93.70;94992.81;4984449;28;20315;-72
2021/12/05 02:50:01;;;;;;;8.82;1.98;;;;;;;0.40;93.26;94985.75;5000002;28;20052;-70
2021/12/05 02:52:32;;;;;;;10.48;1.60;;;;;;;0.24;94.24;94983.69;5002244;28;20034;-70
2021/12/05 02:55:10;;;;;;;6.97;1.75;;;;;;;0.13;94.97;94993.09;4999684;28;20041;-69
2021/12/05 02:57:56;;;;;;;7.78;1.50;;;;;;;-0.02;95.42;94969.00;5001146;28;20053;-69
2021/12/05 03:00:46;;;;;;;5.80;1.95;;;;;;;-0.05;95.34;94988.66;5000917;28;20088;-70
2021/12/05 03:03:20;;;;;;;5.68;1.25;;;;;;;-0.12;95.73;94987.09;5002576;28;20048;-70
2021/12/05 03:05:51;;;;;;;11.50;2.38;;;;;;;-0.17;95.75;94990.38;5001326;28;20033;-69
2021/12/05 03:08:17;;;;;;;13.57;1.50;;;;;;;-0.26;95.76;94983.78;4967679;28;20048;-71
2021/12/05 03:10:43;;;;;;;9.85;1.92;;;;;;;-0.35;96.20;94979.84;5001937;28;20034;-70
2021/12/05 03:13:09;;;;;;;6.20;1.63;;;;;;;-0.40;96.48;94982.28;5001757;28;20400;-71
2021/12/05 03:15:34;;;;;;;21.40;1.90;;;;;;;-0.39;97.07;94984.72;4984210;28;20080;-69
2021/12/05 03:18:01;;;;;;;17.20;2.33;;;;;;;-0.43;96.50;94978.28;4972304;28;20176;-68
2021/12/05 03:20:28;;;;;;;6.38;1.55;;;;;;;-0.44;97.06;94989.81;4984873;28;20030;-70
2021/12/05 03:22:54;;;;;;;11.65;1.58;;;;;;;-0.46;97.25;94991.88;4990131;28;20060;-69
2021/12/05 03:25:20;;;;;;;5.78;1.48;;;;;;;-0.45;97.15;94990.84;4999580;28;20068;-68
2021/12/05 03:27:46;;;;;;;9.23;1.75;;;;;;;-0.44;96.71;94995.06;4999903;28;20038;-68
2021/12/05 03:30:17;;;;;;;8.82;2.03;;;;;;;-0.46;96.93;94986.63;5000320;28;20034;-69
2021/12/05 03:32:48;;;;;;;4.47;0.95;;;;;;;-0.49;97.36;94988.84;5001222;28;20042;-69
2021/12/05 03:35:16;;;;;;;7.55;1.17;;;;;;;-0.50;96.99;94985.41;4984837;28;20108;-71
2021/12/05 03:37:41;;;;;;;8.13;1.73;;;;;;;-0.37;96.93;94980.06;5000239;28;20361;-69
2021/12/05 03:40:09;;;;;;;4.80;1.25;;;;;;;-0.24;97.01;94981.75;4984142;28;20034;-70
2021/12/05 03:42:36;;;;;;;9.30;1.40;;;;;;;-0.08;95.75;94983.00;4980585;28;20392;-72
2021/12/05 03:45:07;;;;;;;9.80;1.75;;;;;;;0.01;95.11;94981.72;4988124;28;20048;-70
2021/12/05 03:47:33;;;;;;;11.02;1.92;;;;;;;0.12;94.46;94982.81;5000781;28;20046;-69
2021/12/05 03:49:58;;;;;;;11.13;2.00;;;;;;;0.15;93.65;94985.78;4976629;28;20049;-71
2021/12/05 03:52:25;;;;;;;9.35;1.70;;;;;;;0.12;93.21;94986.25;4998189;28;20046;-70
2021/12/05 03:54:51;;;;;;;9.02;1.60;;;;;;;0.08;92.86;94984.25;4986905;28;20033;-70
2021/12/05 03:57:18;;;;;;;6.40;1.00;;;;;;;0.03;93.98;94977.03;4988754;28;20113;-71
2021/12/05 03:59:46;;;;;;;4.82;0.85;;;;;;;0.09;92.74;94976.16;4987689;28;20265;-71
2021/12/05 04:02:12;;;;;;;5.93;1.90;;;;;;;-0.02;93.07;94975.03;4988935;28;21843;-69
2021/12/05 04:04:40;;;;;;;7.80;1.75;;;;;;;-0.13;93.02;94977.63;4987809;28;20077;-70
2021/12/05 04:07:07;;;;;;;13.63;2.15;;;;;;;-0.19;93.39;94979.28;4999609;28;20424;-70
2021/12/05 04:09:34;;;;;;;11.65;1.70;;;;;;;-0.30;93.76;94972.13;5004095;28;20073;-70
2021/12/05 04:12:02;;;;;;;7.45;1.48;;;;;;;-0.23;94.25;94987.81;5001759;28;20057;-72
2021/12/05 04:14:38;;;;;;;11.70;2.30;;;;;;;-0.19;94.57;94981.91;4988171;28;20558;-70
2021/12/05 04:17:07;;;;;;;10.00;1.60;;;;;;;-0.17;94.25;94994.81;5001355;28;20038;-70
2021/12/05 04:19:34;;;;;;;5.72;1.23;;;;;;;-0.22;94.52;94984.97;5001571;28;20045;-73
2021/12/05 04:22:02;;;;;;;6.70;1.40;;;;;;;-0.11;93.80;94994.78;5004101;28;20113;-70
2021/12/05 04:24:31;;;;;;;7.40;1.63;;;;;;;0.02;94.10;94993.84;5002208;28;20048;-69
2021/12/05 04:26:57;;;;;;;5.60;1.40;;;;;;;0.11;92.96;94989.91;5000908;28;20048;-70
2021/12/05 04:29:22;;;;;;;16.17;2.13;;;;;;;0.16;92.80;94976.91;4994061;28;20033;-69
2021/12/05 04:31:51;;;;;;;2.85;0.70;;;;;;;0.14;92.42;94978.94;5003751;28;20034;-69
2021/12/05 04:34:17;;;;;;;7.40;1.73;;;;;;;0.18;92.72;94980.13;5002644;28;20072;-71
2021/12/05 04:36:44;;;;;;;6.50;1.55;;;;;;;0.24;92.43;94970.53;4987934;28;20077;-71
2021/12/05 04:39:10;;;;;;;7.30;1.70;;;;;;;0.35;92.29;94980.31;4984299;28;20046;-71
2021/12/05 04:41:39;;;;;;;9.15;1.15;;;;;;;0.38;92.02;94971.97;5004357;28;20038;-72
2021/12/05 04:44:06;;;;;;;8.30;1.65;;;;;;;0.45;91.43;94971.91;4984103;28;20056;-72
2021/12/05 04:46:34;;;;;;;8.63;1.98;;;;;;;0.40;91.31;94977.84;4986305;28;20038;-74
2021/12/05 04:49:01;;;;;;;7.63;1.80;;;;;;;0.35;91.48;94982.94;5003434;28;20598;-72
2021/12/05 04:51:33;;;;;;;10.90;1.58;;;;;;;0.38;91.59;94979.88;5002609;28;20049;-73
2021/12/05 04:54:02;;;;;;;7.75;1.73;;;;;;;0.34;91.77;94978.72;4998924;28;20099;-74
2021/12/05 04:56:28;;;;;;;6.82;1.30;;;;;;;0.31;91.82;94979.13;5001545;28;20026;-71
2021/12/05 04:58:57;;;;;;;5.68;1.30;;;;;;;0.31;91.37;94984.41;5002870;28;20038;-72
2021/12/05 05:01:28;;;;;;;5.95;1.05;;;;;;;0.28;91.85;94985.66;5000262;28;20033;-72
2021/12/05 05:03:53;;;;;;;3.90;0.93;;;;;;;0.26;91.75;94984.28;5003506;28;20120;-71
2021/12/05 05:06:20;;;;;;;5.95;1.38;;;;;;;0.25;92.11;94980.84;5003813;28;20109;-73
2021/12/05 05:08:52;;;;;;;10.13;1.27;;;;;;;0.24;92.24;94988.97;5004284;28;20034;-71
2021/12/05 05:11:20;;;;;;;6.53;1.15;;;;;;;0.24;91.83;94984.50;5002428;28;20045;-72
2021/12/05 05:13:48;;;;;;;8.35;1.33;;;;;;;0.24;92.05;94988.97;5002626;28;20030;-71
2021/12/05 05:16:15;;;;;;;6.13;1.50;;;;;;;0.24;92.08;94986.34;5001915;28;20049;-73
2021/12/05 05:18:48;;;;;;;11.38;1.70;;;;;;;0.28;91.71;94977.75;5006268;28;20025;-71
2021/12/05 05:26:52;;;;;;;5.97;1.23;;;;;;;0.12;91.41;94970.47;5003515;28;20052;-72
2021/12/05 05:48:16;;;;;;;5.47;1.05;;;;;;;-0.64;93.45;94968.94;5002312;28;20447;-73
2021/12/05 05:50:40;;;;;;;5.18;1.40;;;;;;;-0.66;93.24;94976.25;5002177;28;20049;-69
2021/12/05 05:53:07;;;;;;;4.63;1.10;;;;;;;-0.69;93.60;94981.16;5001597;28;20038;-70
2021/12/05 05:55:34;;;;;;;4.70;1.55;;;;;;;-0.69;94.09;94984.56;5002498;28;20042;-70
2021/12/05 05:58:12;;;;;;;13.55;1.60;;;;;;;-0.53;93.29;94985.88;5001901;28;20171;-71
2021/12/05 06:00:51;;;;;;;5.05;1.13;;;;;;;-0.37;93.12;94992.41;5002321;28;20083;-70
2021/12/05 06:05:45;;;;;;;6.30;1.13;;;;;;;-0.31;91.77;94987.09;4984454;28;20038;-70
2021/12/05 06:08:11;;;;;;;5.18;1.55;;;;;;;-0.24;91.35;94988.81;5000575;28;20041;-69
2021/12/05 06:10:37;;;;;;;7.45;1.23;;;;;;;-0.24;90.88;94987.00;5002284;28;20831;-70
2021/12/05 06:13:04;;;;;;;3.67;1.00;;;;;;;-0.32;91.06;94987.28;5002321;28;20477;-71
2021/12/05 06:15:30;;;;;;;9.00;1.42;;;;;;;-0.41;91.56;94985.94;5002898;28;20030;-69
2021/12/05 06:17:56;;;;;;;5.53;1.70;;;;;;;-0.56;91.27;94983.66;4988959;28;20038;-70
2021/12/05 06:20:27;;;;;;;6.45;1.13;;;;;;;-0.67;92.60;94981.72;4985309;28;20119;-69
2021/12/05 06:22:55;;;;;;;4.18;1.55;;;;;;;-0.79;93.18;94984.22;5003138;28;20045;-76
2021/12/05 06:25:23;;;;;;;5.47;1.50;;;;;;;-0.93;93.80;94966.97;5000544;28;20142;-73
2021/12/05 06:27:51;;;;;;;4.28;1.35;;;;;;;-0.93;93.72;94986.16;5002460;28;20108;-70
2021/12/05 06:46:26;;;;;;;8.07;1.42;;;;;;;-0.97;95.03;94992.84;5000094;28;20034;-74
2021/12/05 06:48:52;;;;;;;19.55;2.10;;;;;;;-0.79;94.57;95004.44;5002032;28;20160;-71
2021/12/05 06:51:21;;;;;;;6.97;1.20;;;;;;;-0.71;95.13;95006.81;5000492;28;20362;-72
2021/12/05 06:53:47;;;;;;;5.93;1.33;;;;;;;-0.60;93.76;95014.00;5000501;28;20512;-73
2021/12/05 06:56:13;;;;;;;2.80;1.15;;;;;;;-0.51;93.40;95012.72;5001624;28;20073;-72
2021/12/05 06:58:39;;;;;;;13.63;2.17;;;;;;;-0.43;93.16;95015.09;4999020;28;20042;-74
2021/12/05 07:01:08;;;;;;;6.15;1.80;;;;;;;-0.34;93.77;95018.25;4998748;28;20173;-72
2021/12/05 07:03:35;;;;;;;6.68;1.73;;;;;;;-0.33;93.06;95022.47;5000046;28;20038;-71
2021/12/05 07:06:08;;;;;;;2.83;0.98;;;;;;;-0.31;92.65;95017.81;5002513;28;20041;-71
2021/12/05 07:08:36;;;;;;;8.05;2.15;;;;;;;-0.25;93.27;95035.34;5000394;28;20609;-74
2021/12/05 07:11:15;;;;;;;5.95;1.48;;;;;;;-0.16;92.28;95047.19;4997768;28;20443;-72
2021/12/05 07:16:34;;;;;;;4.97;1.30;;;;;;;-0.06;91.88;95050.16;5000297;28;20358;-73
2021/12/05 07:21:52;;;;;;;5.35;1.42;;;;;;;0.02;91.79;95064.06;4999783;28;20042;-72
2021/12/05 07:24:33;;;;;;;5.70;1.67;;;;;;;0.03;90.72;95061.22;4999462;28;20057;-71
2021/12/05 07:40:29;;;;;;;3.40;1.38;;;;;;;0.17;90.40;95070.59;5005316;28;20045;-71
2021/12/05 07:43:01;;;;;;;3.38;1.45;;;;;;;0.16;90.25;95082.13;5006173;28;20021;-71
2021/12/05 07:45:34;;;;;;;3.70;1.30;;;;;;;0.17;90.51;95073.22;5005558;28;20046;-71
2021/12/05 07:48:10;;;;;;;3.55;1.63;;;;;;;0.07;90.95;95072.88;4993639;28;20053;-70
2021/12/05 07:50:47;;;;;;;5.53;1.58;;;;;;;0.07;91.73;95078.16;5006346;28;20109;-71
2021/12/05 07:53:21;;;;;;;4.28;1.65;;;;;;;0.02;92.15;95085.91;5003618;28;20042;-70
2021/12/05 07:55:51;;;;;;;4.25;1.52;;;;;;;-0.04;91.82;95082.31;5005022;28;20041;-71
2021/12/05 07:58:33;;;;;;;3.78;1.30;;;;;;;-0.06;92.13;95091.44;5002391;28;20041;-72
2021/12/05 08:14:48;;;;;;;6.20;2.78;;;;;;;-0.09;93.00;95105.78;5003069;28;20038;-70
2021/12/05 08:17:17;;;;;;;5.82;1.85;;;;;;;-0.09;93.36;95103.16;5004493;28;20050;-70
2021/12/05 08:19:43;;;;;;;7.18;2.15;;;;;;;-0.11;93.72;95099.16;5004628;28;20038;-70
2021/12/05 08:22:09;;;;;;;4.32;1.77;;;;;;;-0.14;94.41;95094.34;5004699;28;20057;-74
2021/12/05 08:24:38;;;;;;;5.10;1.60;;;;;;;-0.11;94.41;95107.03;4987901;28;20058;-72
2021/12/05 08:27:05;;;;;;;8.18;2.15;;;;;;;-0.06;94.42;95099.31;5006584;28;20432;-70
2021/12/05 08:29:53;;;;;;;3.92;1.70;;;;;;;-0.05;93.77;95116.72;5003098;28;20091;-71
2021/12/05 08:37:49;;;;;;;11.13;2.65;;;;;;;0.25;93.39;95117.66;5004169;28;20727;-72
2021/12/05 08:40:35;;;;;;;5.97;2.47;;;;;;;0.24;93.39;95120.53;5004294;28;20486;-71
2021/12/05 08:43:31;;;;;;;7.30;2.72;;;;;;;0.22;92.93;95122.53;5004226;28;20362;-71
2021/12/05 09:08:43;;;;;;;9.88;3.65;;;;;;;0.16;93.65;95113.72;5003298;28;20034;-71
2021/12/05 09:22:13;;;;;;;5.10;1.50;;;;;;;0.45;92.80;95148.25;4975893;28;20391;-73
2021/12/05 09:24:46;;;;;;;9.93;3.65;;;;;;;0.53;92.70;95159.28;5003497;28;20143;-71
2021/12/05 09:28:33;;;;;;;7.05;2.30;;;;;;;0.60;92.45;95156.59;5003731;28;20085;-72
2021/12/05 09:39:37;;;;;;;5.88;3.15;;;;;;;0.62;92.27;95159.81;4980109;28;20142;-70
2021/12/05 10:07:01;;;;;;;7.25;2.15;;;;;;;1.18;90.94;95158.81;5002061;28;20076;-70
2021/12/05 10:14:48;;;;;;;5.45;2.42;;;;;;;1.73;89.25;95148.16;5004736;28;20050;-69
2021/12/05 10:17:37;;;;;;;2.72;1.27;;;;;;;1.68;88.80;95148.81;5005406;28;20368;-70
2021/12/05 10:37:20;;;;;;;3.28;1.33;;;;;;;2.78;82.23;95139.53;5002305;28;20072;-69
2021/12/05 10:39:47;;;;;;;3.90;1.33;;;;;;;2.79;82.48;95141.94;5003573;28;20025;-72
2021/12/05 10:45:20;;;;;;;3.00;1.30;;;;;;;2.39;84.37;95139.19;4967882;28;20041;-70
2021/12/05 10:47:56;;;;;;;2.97;0.80;;;;;;;2.24;84.40;95147.56;5003463;28;20440;-72
2021/12/05 10:50:42;;;;;;;5.45;1.83;;;;;;;2.38;84.44;95134.16;5003813;28;20441;-70
2021/12/05 10:53:28;;;;;;;3.92;1.65;;;;;;;2.72;82.85;95145.72;5002562;28;20056;-71
2021/12/05 10:56:02;;;;;;;1.90;0.88;;;;;;;2.68;82.45;95142.75;5002962;28;20041;-72
2021/12/05 10:58:38;;;;;;;2.40;1.10;;;;;;;2.49;81.54;95139.44;4999656;28;20050;-73
2021/12/05 11:01:14;;;;;;;1.90;0.70;;;;;;;2.46;81.11;95139.91;5000108;28;20056;-69
2021/12/05 11:03:42;;;;;;;3.47;0.70;;;;;;;1.98;83.95;95149.81;5004441;28;20044;-71
2021/12/05 11:06:31;;;;;;;3.63;1.27;;;;;;;1.93;84.59;95158.41;5002900;28;20046;-70
2021/12/05 11:08:58;;;;;;;5.40;1.80;;;;;;;2.01;85.07;95150.16;5003416;28;20041;-70
2021/12/05 11:11:24;;;;;;;2.72;0.80;;;;;;;1.63;85.43;95158.44;5003625;28;20326;-72
2021/12/05 11:13:51;;;;;;;3.22;1.02;;;;;;;1.59;86.46;95159.91;5004929;28;20030;-71
2021/12/05 11:16:35;;;;;;;4.70;0.88;;;;;;;1.68;86.78;95150.66;5003917;28;20338;-70
2021/12/05 11:19:02;;;;;;;2.72;1.40;;;;;;;1.69;86.31;95160.16;5003540;28;20033;-71
2021/12/05 11:21:34;;;;;;;3.03;1.65;;;;;;;1.71;86.29;95152.84;5003587;28;20030;-69
2021/12/05 11:24:12;;;;;;;3.15;1.40;;;;;;;2.20;85.25;95154.34;5001794;28;20050;-70
2021/12/05 11:26:40;;;;;;;2.05;0.98;;;;;;;2.28;83.91;95153.22;5003372;28;20057;-70
2021/12/05 11:29:07;;;;;;;3.83;1.27;;;;;;;2.26;83.96;95160.56;5003134;28;20038;-69
2021/12/05 11:31:34;;;;;;;5.63;2.42;;;;;;;2.24;84.61;95157.31;5004264;28;20488;-70
2021/12/05 11:34:00;;;;;;;4.57;1.63;;;;;;;2.53;83.77;95150.34;5002335;28;20060;-70
2021/12/05 11:36:28;;;;;;;9.80;2.60;;;;;;;2.54;83.86;95156.44;5002707;28;20472;-70
2021/12/05 11:38:54;;;;;;;3.33;1.23;;;;;;;3.08;82.99;95155.22;4999664;28;20410;-73
2021/12/05 11:41:22;;;;;;;4.95;1.90;;;;;;;2.76;83.08;95147.69;5002990;28;20070;-69
2021/12/05 11:43:48;;;;;;;4.97;2.38;;;;;;;3.03;83.31;95145.34;5003522;28;20643;-72
2021/12/05 11:46:32;;;;;;;3.53;1.73;;;;;;;2.62;83.12;95130.47;5003307;28;20049;-71
2021/12/05 11:49:02;;;;;;;4.90;2.00;;;;;;;2.86;82.18;95144.47;5003142;28;20128;-69
2021/12/05 11:51:44;;;;;;;3.80;1.23;;;;;;;3.68;79.01;95138.97;5003598;28;20049;-69
2021/12/05 11:54:09;;;;;;;6.43;3.38;;;;;;;4.25;75.83;95135.41;4999625;28;20054;-70
2021/12/05 11:56:54;;;;;;;3.38;1.52;;;;;;;2.99;79.07;95141.56;5003652;28;20073;-70
2021/12/05 11:59:37;;;;;;;6.47;3.00;;;;;;;2.86;80.22;95146.31;5002773;28;20397;-70
2021/12/05 12:02:06;;;;;;;4.10;1.40;;;;;;;2.67;80.42;95157.00;5001697;28;20298;-70
2021/12/05 12:04:46;;;;;;;5.50;1.50;;;;;;;3.00;78.48;95137.09;5004039;28;20049;-70
2021/12/05 12:07:23;;;;;;;4.25;1.63;;;;;;;2.68;79.25;95142.75;5002429;28;20083;-71
2021/12/05 12:09:53;;;;;;;3.85;2.35;;;;;;;2.52;80.50;95140.81;5004340;28;20096;-70
2021/12/05 12:12:19;;;;;;;4.10;1.73;;;;;;;2.46;80.75;95144.38;5002270;28;20042;-71
2021/12/05 12:14:46;;;;;;;4.10;2.10;;;;;;;2.43;82.01;95147.47;5002381;28;20388;-72
2021/12/05 12:17:16;;;;;;;3.15;1.20;;;;;;;2.37;81.82;95157.13;5001860;28;20464;-70
2021/12/05 12:19:47;;;;;;;3.40;1.52;;;;;;;2.32;82.15;95164.09;5005138;28;20544;-71
2021/12/05 12:22:15;;;;;;;2.45;1.30;;;;;;;2.17;83.26;95146.88;5007110;28;20049;-70
2021/12/05 12:24:41;;;;;;;2.67;1.00;;;;;;;2.64;82.27;95156.66;5006019;28;20103;-74
2021/12/05 12:27:08;;;;;;;4.20;1.80;;;;;;;4.38;77.81;95157.09;5005627;28;20046;-71
2021/12/05 12:29:34;;;;;;;7.15;4.10;;;;;;;7.33;68.02;95146.03;5006960;28;20532;-70
2021/12/05 12:32:07;;;;;;;6.57;3.35;;;;;;;9.36;60.28;95141.94;4980631;28;20062;-72
2021/12/05 12:34:32;;;;;;;3.90;1.63;;;;;;;10.69;55.24;95147.34;5004637;28;20041;-70
2021/12/05 12:37:01;;;;;;;3.30;1.40;;;;;;;9.25;55.39;95145.69;5008488;28;20527;-72
2021/12/05 12:39:36;;;;;;;4.65;1.48;;;;;;;8.52;58.41;95141.53;5006777;28;20048;-71
2021/12/05 12:42:12;;;;;;;4.43;1.40;;;;;;;6.05;66.45;95148.88;4988976;28;20496;-72
2021/12/05 12:45:01;;;;;;;3.67;1.38;;;;;;;4.55;71.50;95151.78;5008189;28;20439;-73
2021/12/05 12:47:59;;;;;;;4.28;1.50;;;;;;;4.59;72.40;95158.22;5007666;28;20115;-72
2021/12/05 12:50:29;;;;;;;2.42;0.93;;;;;;;4.49;71.57;95163.34;5005098;28;20050;-71
2021/12/05 12:53:20;;;;;;;5.10;1.10;;;;;;;4.03;73.86;95162.59;5003390;28;20038;-71
2021/12/05 12:56:09;;;;;;;2.38;1.20;;;;;;;3.30;77.39;95166.00;5006726;28;20260;-71
2021/12/05 12:58:49;;;;;;;3.45;1.17;;;;;;;3.13;79.69;95165.91;5006235;28;20038;-71
2021/12/05 13:01:41;;;;;;;2.85;1.38;;;;;;;2.90;79.49;95164.13;5005167;28;20038;-70
2021/12/05 13:10:05;;;;;;;3.90;1.17;;;;;;;2.90;80.42;95169.41;5006616;28;20091;-71
2021/12/05 13:12:40;;;;;;;5.30;1.50;;;;;;;2.84;79.26;95174.81;5005871;28;20048;-70
2021/12/05 13:15:09;;;;;;;4.15;1.00;;;;;;;2.79;79.00;95172.84;5005282;28;20794;-72
2021/12/05 13:17:40;;;;;;;2.88;1.00;;;;;;;2.69;80.61;95173.44;5006687;28;20026;-72
2021/12/05 13:20:07;;;;;;;5.13;1.20;;;;;;;2.76;80.35;95178.59;5004968;28;20042;-71
2021/12/05 13:22:33;;;;;;;4.80;1.17;;;;;;;2.90;80.32;95181.81;5006818;28;20265;-71
2021/12/05 13:25:07;;;;;;;5.53;1.83;;;;;;;2.82;78.78;95177.69;5006487;28;20187;-72
2021/12/05 13:27:35;;;;;;;4.28;1.10;;;;;;;2.77;78.66;95185.47;5003838;28;20393;-72
2021/12/05 13:30:00;;;;;;;3.25;1.20;;;;;;;2.68;79.10;95198.22;5002686;28;20025;-73
2021/12/05 13:32:31;;;;;;;8.20;3.33;;;;;;;2.59;78.93;95193.53;4987852;28;20073;-72
2021/12/05 13:34:59;;;;;;;4.18;1.40;;;;;;;2.69;79.78;95197.19;5005670;28;20042;-71
2021/12/05 13:37:44;;;;;;;3.90;1.42;;;;;;;2.67;79.27;95196.63;5005583;28;20469;-73
2021/12/05 13:40:16;;;;;;;30.98;12.23;;;;;;;2.85;79.18;95197.53;5004558;28;20046;-72
2021/12/05 13:42:48;;;;;;;3.90;1.25;;;;;;;2.77;79.14;95204.78;5005110;28;20436;-71
2021/12/05 13:45:20;;;;;;;5.00;1.30;;;;;;;2.74;78.75;95201.81;5003492;28;20358;-71
2021/12/05 13:47:52;;;;;;;2.30;1.00;;;;;;;2.81;79.28;95201.69;5005125;28;20042;-71
2021/12/05 13:50:29;;;;;;;12.52;5.70;;;;;;;2.87;80.09;95208.69;5006353;28;20034;-71
2021/12/05 13:53:07;;;;;;;5.30;3.10;;;;;;;2.86;78.62;95207.88;5006087;28;20049;-71
2021/12/05 13:55:41;;;;;;;6.38;2.97;;;;;;;2.88;78.79;95203.19;5005399;28;20096;-72
2021/12/05 13:58:35;;;;;;;11.75;5.63;;;;;;;2.82;78.34;95205.94;5004618;28;20488;-72
2021/12/05 14:01:10;;;;;;;8.65;4.18;;;;;;;2.77;79.52;95219.81;5004737;28;20141;-71
2021/12/05 14:03:54;;;;;;;5.93;3.30;;;;;;;2.68;78.70;95221.22;5004252;28;20053;-72
2021/12/05 14:06:37;;;;;;;6.32;1.50;;;;;;;2.61;79.42;95209.94;5005064;28;20048;-74
2021/12/05 14:09:11;;;;;;;9.48;4.30;;;;;;;2.53;80.09;95210.28;5003636;28;20133;-70
2021/12/05 14:11:46;;;;;;;7.38;2.65;;;;;;;2.49;80.03;95221.31;5005379;28;20477;-71
2021/12/05 14:14:13;;;;;;;7.18;3.22;;;;;;;2.40;80.87;95222.66;5004033;28;20624;-72
2021/12/05 14:16:42;;;;;;;9.77;3.72;;;;;;;2.49;81.13;95236.31;5005412;28;20132;-70
2021/12/05 14:19:14;;;;;;;5.95;1.85;;;;;;;2.32;80.75;95232.75;5003786;28;20423;-73
2021/12/05 14:21:47;;;;;;;3.85;1.63;;;;;;;2.27;81.58;95241.34;5005301;28;20113;-70
2021/12/05 14:24:14;;;;;;;5.00;2.33;;;;;;;2.14;82.01;95241.53;5003290;28;20137;-70
2021/12/05 14:26:40;;;;;;;5.20;1.85;;;;;;;2.11;81.83;95247.28;5004035;28;20030;-72
2021/12/05 14:29:19;;;;;;;11.88;3.42;;;;;;;2.14;82.35;95249.47;5003611;28;20038;-70
2021/12/05 14:32:25;;;;;;;36.72;16.35;;;;;;;2.17;84.05;95254.28;5003593;28;20056;-70
2021/12/05 14:34:54;;;;;;;35.17;14.70;;;;;;;2.11;83.70;95253.34;5000580;28;20045;-70
2021/12/05 14:37:22;;;;;;;4.05;1.83;;;;;;;1.97;84.08;95254.56;5001992;28;20048;-70
2021/12/05 14:39:50;;;;;;;27.55;13.13;;;;;;;1.76;85.18;95269.03;5000521;28;20471;-71
2021/12/05 14:42:19;;;;;;;24.70;11.65;;;;;;;1.60;86.11;95285.47;5002396;28;20038;-71
2021/12/05 14:44:48;;;;;;;5.25;1.70;;;;;;;1.51;86.72;95279.69;5003184;28;20041;-73
2021/12/05 14:47:20;;;;;;;4.53;1.92;;;;;;;1.63;86.46;95283.19;5001274;28;20046;-70
2021/12/05 14:49:49;;;;;;;4.13;1.20;;;;;;;1.65;85.80;95289.06;5003068;28;20088;-73
2021/12/05 14:52:19;;;;;;;3.20;1.30;;;;;;;1.48;86.48;95293.31;5002247;28;20135;-70
2021/12/05 14:54:46;;;;;;;4.20;1.48;;;;;;;1.56;87.03;95294.84;5002960;28;20053;-71
2021/12/05 14:57:15;;;;;;;14.00;5.97;;;;;;;1.55;87.33;95288.75;5002356;28;20038;-71
2021/12/05 14:59:43;;;;;;;12.93;7.85;;;;;;;1.58;87.58;95298.06;5003434;28;20396;-69
2021/12/05 15:02:08;;;;;;;13.23;7.75;;;;;;;1.63;87.75;95290.28;5003907;28;20045;-72
2021/12/05 15:04:38;;;;;;;8.32;4.00;;;;;;;1.55;88.17;95299.28;5004149;28;20076;-72
2021/12/05 15:07:04;;;;;;;5.90;2.13;;;;;;;1.58;88.00;95298.06;5002834;28;20046;-71
2021/12/05 15:09:37;;;;;;;6.72;2.20;;;;;;;1.51;88.22;95303.41;5003919;28;20038;-72
2021/12/05 15:12:10;;;;;;;5.53;1.70;;;;;;;1.39;88.05;95310.41;5003124;28;20334;-70
2021/12/05 15:14:40;;;;;;;4.07;1.33;;;;;;;1.29;88.76;95312.75;5003476;28;20045;-71
2021/12/05 15:17:14;;;;;;;5.32;1.30;;;;;;;1.19;88.73;95313.28;5001993;28;20448;-70
2021/12/05 15:19:44;;;;;;;6.40;1.25;;;;;;;1.00;89.51;95320.31;5004209;28;20037;-69
2021/12/05 15:22:12;;;;;;;5.18;1.38;;;;;;;0.96;89.58;95328.88;5003215;28;20116;-73
2021/12/05 15:24:39;;;;;;;3.78;1.23;;;;;;;0.91;90.38;95331.34;5002272;28;20049;-69
2021/12/05 15:27:14;;;;;;;6.20;1.20;;;;;;;0.91;90.41;95342.69;5001539;28;20373;-71
2021/12/05 15:29:46;;;;;;;4.78;1.30;;;;;;;0.86;91.00;95347.81;5004011;28;20037;-70
2021/12/05 15:32:16;;;;;;;6.25;1.33;;;;;;;0.79;91.36;95349.69;5001398;28;20950;-69
2021/12/05 15:34:42;;;;;;;4.53;2.00;;;;;;;0.62;91.40;95354.66;5001548;28;20124;-70
2021/12/05 15:37:11;;;;;;;2.97;1.30;;;;;;;0.59;92.20;95354.28;5000620;28;20125;-71
2021/12/05 15:39:42;;;;;;;3.97;1.20;;;;;;;0.57;92.02;95348.44;5004077;28;20730;-71
2021/12/05 15:42:29;;;;;;;4.30;2.30;;;;;;;0.59;91.80;95354.28;5003525;28;20441;-69
2021/12/05 15:44:57;;;;;;;3.25;1.42;;;;;;;0.59;92.22;95364.81;5001528;28;20118;-71
2021/12/05 15:47:32;;;;;;;7.32;1.35;;;;;;;0.59;92.60;95365.63;5003566;28;20049;-70
2021/12/05 15:50:07;;;;;;;2.47;1.20;;;;;;;0.55;92.88;95370.50;5004572;28;20492;-69
2021/12/05 15:52:43;;;;;;;4.07;1.20;;;;;;;0.55;92.88;95372.34;5002076;28;20053;-72
2021/12/05 15:55:24;;;;;;;5.68;1.60;;;;;;;0.62;92.48;95375.72;5005358;28;20310;-69
2021/12/05 15:58:07;;;;;;;3.92;1.60;;;;;;;0.70;91.68;95378.13;5006211;28;20484;-69
2021/12/05 16:00:43;;;;;;;5.55;1.50;;;;;;;0.81;91.61;95379.25;5005634;28;20041;-70
2021/12/05 16:03:15;;;;;;;3.22;1.35;;;;;;;0.83;91.22;95383.28;5005374;28;20117;-69
2021/12/05 16:05:43;;;;;;;3.15;1.13;;;;;;;0.84;91.50;95384.88;5007597;28;20038;-73
2021/12/05 16:08:10;;;;;;;2.00;1.00;;;;;;;0.88;91.51;95384.47;5005868;28;20108;-70
2021/12/05 16:10:39;;;;;;;2.83;1.20;;;;;;;0.90;91.05;95387.69;5007476;28;20040;-70
2021/12/05 16:13:13;;;;;;;4.60;1.02;;;;;;;0.86;91.15;95392.59;5006042;28;20074;-70
2021/12/05 16:15:40;;;;;;;5.68;1.02;;;;;;;0.86;90.81;95397.88;5008148;28;20043;-71
2021/12/05 16:18:06;;;;;;;2.75;1.20;;;;;;;0.93;91.18;95398.59;5005130;28;20513;-71
2021/12/05 16:21:05;;;;;;;8.77;3.00;;;;;;;0.94;91.04;95409.97;5005669;28;20080;-70
2021/12/05 16:23:36;;;;;;;4.28;1.80;;;;;;;0.88;90.91;95413.44;5008340;28;20069;-70
2021/12/05 16:26:01;;;;;;;;;;;;;;;0.86;91.02;95410.19;5005178;28;20034;-75
2021/12/05 16:28:32;;;;;;;4.50;1.70;;;;;;;0.80;90.86;95414.50;5007156;28;19954;-71
2021/12/05 16:31:03;;;;;;;6.03;2.23;;;;;;;0.81;91.12;95422.19;5005831;28;20038;-71
2021/12/05 16:33:29;;;;;;;6.70;2.40;;;;;;;0.81;91.26;95421.38;5005517;28;20038;-71
2021/12/05 16:35:55;;;;;;;2.60;1.05;;;;;;;0.84;90.68;95426.22;5004117;28;20062;-71
2021/12/05 16:38:34;;;;;;;3.28;1.50;;;;;;;0.83;90.39;95429.88;5004803;28;20081;-69
2021/12/05 16:41:08;;;;;;;2.50;1.10;;;;;;;0.87;90.71;95427.63;5004776;28;20117;-70
2021/12/05 16:43:36;;;;;;;3.47;1.10;;;;;;;0.90;90.07;95435.09;5006026;28;20137;-73
2021/12/05 16:46:24;;;;;;;3.63;1.88;;;;;;;0.91;90.29;95428.81;5005415;28;20072;-71
2021/12/05 16:48:52;;;;;;;3.90;2.05;;;;;;;0.95;90.34;95433.44;5005367;28;20037;-71
2021/12/05 16:51:29;;;;;;;3.13;1.50;;;;;;;0.98;89.78;95434.84;5004758;28;20046;-72
2021/12/05 16:54:03;;;;;;;3.25;1.45;;;;;;;0.94;90.21;95442.38;5004419;28;20038;-69
2021/12/05 16:57:03;;;;;;;3.92;1.70;;;;;;;0.96;90.26;95434.25;5005796;28;20129;-71
2021/12/05 16:59:41;;;;;;;5.40;2.40;;;;;;;0.99;90.16;95439.09;4991447;28;20480;-70
2021/12/05 17:02:16;;;;;;;3.72;1.88;;;;;;;0.97;90.49;95443.78;5003640;28;20378;-71